createdAt,value
2022-08-02T00:00:57.111Z,2.25
2022-08-02T00:03:27.495Z,2.20
2022-08-02T00:05:54.673Z,2.00
2022-08-02T00:08:22.365Z,2.17
2022-08-02T00:10:50.119Z,2.30
2022-08-02T00:13:17.239Z,2.20
2022-08-02T00:15:44.195Z,2.42
2022-08-02T00:18:11.480Z,2.47
2022-08-02T00:20:38.521Z,2.53
2022-08-02T00:23:05.649Z,2.40
2022-08-02T00:25:32.878Z,2.35
2022-08-02T00:28:00.138Z,2.47
2022-08-02T00:30:32.040Z,2.40
2022-08-02T00:32:59.694Z,2.10
2022-08-02T00:35:29.023Z,2.25
2022-08-02T00:37:56.060Z,2.30
2022-08-02T00:40:24.441Z,2.25
2022-08-02T00:43:07.932Z,2.70
2022-08-02T00:46:02.837Z,2.28
2022-08-02T00:48:25.744Z,2.65
2022-08-02T00:50:52.985Z,2.40
2022-08-02T00:53:20.141Z,2.50
2022-08-02T00:55:49.391Z,2.60
2022-08-02T00:58:17.091Z,2.25
2022-08-02T01:00:44.320Z,2.55
2022-08-02T01:03:11.392Z,2.75
2022-08-02T01:06:10.250Z,2.10
2022-08-02T01:08:29.465Z,2.20
2022-08-02T01:10:59.175Z,1.95
2022-08-02T01:13:27.675Z,2.13
2022-08-02T01:16:08.595Z,1.80
2022-08-02T01:18:43.344Z,1.73
2022-08-02T01:21:32.850Z,2.00
2022-08-02T01:24:07.417Z,1.85
2022-08-02T01:26:52.668Z,1.80
2022-08-02T01:29:45.470Z,1.90
2022-08-02T01:32:22.157Z,1.30
2022-08-02T01:34:58.812Z,1.70
2022-08-02T01:37:35.345Z,1.50
2022-08-02T01:40:10.040Z,1.35
2022-08-02T01:42:42.272Z,1.40
2022-08-02T01:45:12.644Z,1.20
2022-08-02T01:47:41.421Z,1.63
2022-08-02T01:50:14.200Z,1.40
2022-08-02T01:52:53.218Z,1.45
2022-08-02T01:55:28.220Z,1.55
2022-08-02T01:58:05.295Z,1.80
2022-08-02T02:00:36.763Z,1.50
2022-08-02T02:03:07.077Z,1.60
2022-08-02T02:05:36.951Z,1.30
2022-08-02T02:08:05.909Z,1.50
2022-08-02T02:10:35.757Z,1.60
2022-08-02T02:13:10.177Z,1.48
2022-08-02T02:15:42.023Z,1.33
2022-08-02T02:18:13.901Z,1.70
2022-08-02T02:20:42.654Z,1.42
2022-08-02T02:23:11.170Z,1.40
2022-08-02T02:25:46.612Z,1.40
2022-08-02T02:28:30.486Z,1.50
2022-08-02T02:31:05.152Z,1.80
2022-08-02T02:33:35.723Z,1.45
2022-08-02T02:36:03.511Z,1.60
2022-08-02T02:38:33.157Z,1.67
2022-08-02T02:41:03.393Z,1.65
2022-08-02T02:43:33.013Z,1.70
2022-08-02T02:46:07.625Z,1.58
2022-08-02T02:48:36.245Z,1.50
2022-08-02T02:51:08.154Z,1.65
2022-08-02T02:54:32.617Z,1.70
2022-08-02T02:56:32.975Z,1.63
2022-08-02T02:59:00.902Z,1.60
2022-08-02T03:01:55.523Z,1.50
2022-08-02T03:04:20.603Z,1.65
2022-08-02T03:06:47.984Z,1.70
2022-08-02T03:09:14.964Z,1.83
2022-08-02T03:11:42.571Z,1.63
2022-08-02T03:14:12.264Z,1.90
2022-08-02T03:16:47.012Z,1.98
2022-08-02T03:19:14.939Z,1.75
2022-08-02T03:21:43.840Z,1.80
2022-08-02T03:24:11.174Z,1.63
2022-08-02T03:26:39.271Z,1.83
2022-08-02T03:29:10.097Z,2.00
2022-08-02T03:31:41.947Z,2.10
2022-08-02T03:34:12.778Z,1.95
2022-08-02T03:36:41.937Z,1.85
2022-08-02T03:39:11.172Z,1.80
2022-08-02T03:41:39.982Z,1.83
2022-08-02T03:44:08.549Z,1.80
2022-08-02T03:46:39.509Z,2.58
2022-08-02T03:49:11.212Z,1.90
2022-08-02T03:51:39.611Z,2.15
2022-08-02T03:54:06.945Z,2.17
2022-08-02T03:56:34.686Z,1.90
2022-08-02T03:59:13.651Z,2.20
2022-08-02T04:01:42.291Z,2.20
2022-08-02T04:04:12.500Z,2.00
2022-08-02T04:06:40.218Z,1.77
2022-08-02T04:09:10.413Z,2.03
2022-08-02T04:11:38.034Z,2.00
2022-08-02T04:14:11.156Z,1.90
2022-08-02T04:16:50.440Z,1.85
2022-08-02T04:19:25.845Z,1.90
2022-08-02T04:21:54.884Z,2.03
2022-08-02T04:24:26.840Z,2.25
2022-08-02T04:26:57.984Z,1.70
2022-08-02T04:29:33.438Z,1.67
2022-08-02T04:32:01.993Z,1.90
2022-08-02T04:34:30.136Z,1.70
2022-08-02T04:37:00.657Z,1.70
2022-08-02T04:39:28.542Z,1.65
2022-08-02T04:41:58.276Z,1.63
2022-08-02T04:44:25.583Z,1.60
2022-08-02T04:46:56.128Z,1.75
2022-08-02T04:49:23.219Z,2.08
2022-08-02T04:51:51.113Z,1.88
2022-08-02T04:54:18.759Z,1.77
2022-08-02T04:56:45.667Z,1.80
2022-08-02T04:59:15.176Z,1.90
2022-08-02T05:01:43.096Z,1.58
2022-08-02T05:04:10.816Z,1.88
2022-08-02T05:06:38.204Z,2.00
2022-08-02T05:09:05.802Z,1.70
2022-08-02T05:11:36.730Z,1.58
2022-08-02T05:14:05.749Z,1.55
2022-08-02T05:16:36.236Z,2.30
2022-08-02T05:19:03.762Z,1.75
2022-08-02T05:21:31.967Z,1.73
2022-08-02T05:24:01.984Z,2.15
2022-08-02T05:26:31.484Z,1.85
2022-08-02T05:28:58.637Z,1.80
2022-08-02T05:31:25.845Z,1.50
2022-08-02T05:33:52.949Z,1.40
2022-08-02T05:36:21.386Z,1.48
2022-08-02T05:38:53.242Z,1.60
2022-08-02T05:41:32.662Z,1.50
2022-08-02T05:44:00.109Z,1.48
2022-08-02T05:46:27.819Z,1.60
2022-08-02T05:48:54.981Z,1.73
2022-08-02T05:51:45.997Z,1.60
2022-08-02T05:54:23.617Z,1.77
2022-08-02T05:57:06.234Z,1.58
2022-08-02T05:59:55.875Z,1.40
2022-08-02T06:02:30.717Z,1.80
2022-08-02T06:05:19.075Z,1.90
2022-08-02T06:07:48.427Z,1.60
2022-08-02T06:10:19.517Z,1.83
2022-08-02T06:12:49.862Z,2.03
2022-08-02T06:15:19.573Z,2.22
2022-08-02T06:17:50.592Z,2.22
2022-08-02T06:20:18.279Z,2.25
2022-08-02T06:22:46.762Z,2.22
2022-08-02T06:25:50.615Z,2.20
2022-08-02T06:28:04.668Z,2.08
2022-08-02T06:30:39.112Z,2.03
2022-08-02T06:33:06.326Z,2.13
2022-08-02T06:35:48.649Z,1.80
2022-08-02T06:38:21.996Z,2.08
2022-08-02T06:40:57.226Z,1.98
2022-08-02T06:43:30.773Z,2.00
2022-08-02T06:46:57.445Z,2.00
2022-08-02T06:48:48.324Z,1.80
2022-08-02T06:51:15.540Z,2.00
2022-08-02T06:53:43.088Z,2.00
2022-08-02T06:56:11.081Z,2.20
2022-08-02T06:58:40.175Z,2.65
2022-08-02T07:01:07.963Z,2.13
2022-08-02T07:03:37.093Z,1.90
2022-08-02T07:06:06.213Z,2.38
2022-08-02T07:08:33.290Z,2.20
2022-08-02T07:11:04.201Z,2.10
2022-08-02T07:13:35.621Z,2.10
2022-08-02T07:16:08.385Z,2.58
2022-08-02T07:18:35.997Z,2.00
2022-08-02T07:21:06.229Z,2.13
2022-08-02T07:23:38.497Z,1.85
2022-08-02T07:26:06.031Z,2.00
2022-08-02T07:28:33.044Z,2.10
2022-08-02T07:31:00.209Z,1.80
2022-08-02T07:33:39.063Z,1.65
2022-08-02T07:36:09.930Z,1.75
2022-08-02T07:38:43.980Z,1.88
2022-08-02T07:41:12.903Z,2.20
2022-08-02T07:43:39.955Z,2.30
2022-08-02T07:46:09.550Z,1.80
2022-08-02T07:48:37.225Z,1.85
2022-08-02T07:51:08.936Z,1.70
2022-08-02T07:53:51.141Z,1.70
2022-08-02T07:56:23.564Z,2.88
2022-08-02T07:58:55.405Z,1.90
2022-08-02T08:01:22.568Z,1.80
2022-08-02T08:03:50.832Z,2.20
2022-08-02T08:06:18.123Z,1.83
2022-08-02T08:08:47.636Z,2.00
2022-08-02T08:11:17.454Z,1.85
2022-08-02T08:13:44.751Z,1.67
2022-08-02T08:16:14.201Z,1.58
2022-08-02T08:18:44.943Z,1.70
2022-08-02T08:21:12.098Z,1.80
2022-08-02T08:23:39.200Z,2.20
2022-08-02T08:26:06.571Z,1.75
2022-08-02T08:28:41.125Z,1.77
2022-08-02T08:31:10.778Z,2.10
2022-08-02T08:33:38.185Z,1.60
2022-08-02T08:36:05.794Z,1.70
2022-08-02T08:38:33.094Z,1.75
2022-08-02T08:41:00.595Z,1.67
2022-08-02T08:43:27.824Z,1.67
2022-08-02T08:45:56.496Z,1.80
2022-08-02T08:48:30.546Z,1.80
2022-08-02T08:51:16.476Z,1.77
2022-08-02T08:53:47.079Z,1.60
2022-08-02T08:56:17.025Z,1.70
2022-08-02T08:58:47.901Z,1.80
2022-08-02T09:01:21.935Z,1.88
2022-08-02T09:03:50.047Z,1.80
2022-08-02T09:06:17.692Z,2.20
2022-08-02T09:08:47.629Z,1.60
2022-08-02T09:11:16.884Z,1.35
2022-08-02T09:13:52.640Z,1.50
2022-08-02T09:16:41.655Z,1.40
2022-08-02T09:19:24.913Z,1.70
2022-08-02T09:22:01.427Z,1.25
2022-08-02T09:24:31.695Z,1.50
2022-08-02T09:26:59.000Z,1.10
2022-08-02T09:29:26.662Z,1.58
2022-08-02T09:32:03.617Z,1.30
2022-08-02T09:34:52.538Z,1.20
2022-08-02T09:37:27.902Z,1.58
2022-08-02T09:39:59.592Z,1.40
2022-08-02T09:42:31.304Z,1.52
2022-08-02T09:45:00.511Z,1.45
2022-08-02T09:47:29.097Z,1.30
2022-08-02T09:49:59.395Z,1.50
2022-08-02T09:52:43.374Z,1.17
2022-08-02T09:55:12.807Z,1.25
2022-08-02T09:57:40.321Z,1.10
2022-08-02T10:00:23.310Z,1.27
2022-08-02T10:03:34.813Z,1.08
2022-08-02T10:06:03.573Z,1.20
2022-08-02T10:08:33.689Z,1.17
2022-08-02T10:11:02.709Z,1.13
2022-08-02T10:13:35.053Z,0.80
2022-08-02T10:16:04.596Z,1.58
2022-08-02T10:18:40.817Z,1.52
2022-08-02T10:21:15.483Z,1.20
2022-08-02T10:23:45.308Z,1.20
2022-08-02T10:26:20.946Z,0.80
2022-08-02T10:28:50.343Z,1.15
2022-08-02T10:31:25.600Z,0.90
2022-08-02T10:33:58.349Z,0.82
2022-08-02T10:36:27.424Z,1.10
2022-08-02T10:38:58.917Z,0.90
2022-08-02T10:41:48.251Z,0.73
2022-08-02T10:44:33.253Z,1.10
2022-08-02T10:47:19.965Z,1.38
2022-08-02T10:49:50.772Z,1.35
2022-08-02T10:52:20.240Z,0.93
2022-08-02T10:55:14.978Z,0.93
2022-08-02T10:58:26.189Z,1.13
2022-08-02T11:00:54.169Z,1.10
2022-08-02T11:03:40.492Z,1.38
2022-08-02T11:06:25.985Z,1.10
2022-08-02T11:09:31.788Z,1.25
2022-08-02T11:12:05.827Z,1.17
2022-08-02T11:14:36.305Z,1.23
2022-08-02T11:17:05.520Z,1.10
2022-08-02T11:19:34.963Z,0.90
2022-08-02T11:22:07.255Z,0.93
2022-08-02T11:24:36.744Z,1.20
2022-08-02T11:27:09.302Z,1.05
2022-08-02T11:29:40.529Z,1.15
2022-08-02T11:32:15.531Z,1.13
2022-08-02T11:34:43.259Z,1.20
2022-08-02T11:37:10.860Z,0.95
2022-08-02T11:39:40.411Z,1.40
2022-08-02T11:42:10.155Z,1.13
2022-08-02T11:44:42.242Z,1.48
2022-08-02T11:47:09.407Z,1.30
2022-08-02T11:49:37.527Z,1.20
2022-08-02T11:52:11.309Z,1.60
2022-08-02T11:54:43.325Z,1.38
2022-08-02T11:57:19.255Z,1.10
2022-08-02T12:02:21.906Z,1.20
2022-08-02T12:04:58.434Z,1.20
2022-08-02T12:07:57.558Z,1.00
2022-08-02T12:10:25.449Z,1.38
2022-08-02T12:12:58.293Z,1.67
2022-08-02T12:15:38.162Z,1.23
2022-08-02T12:18:31.950Z,1.20
2022-08-02T12:20:59.912Z,0.90
2022-08-02T12:23:27.626Z,0.88
2022-08-02T12:26:07.539Z,1.42
2022-08-02T12:28:38.965Z,1.40
2022-08-02T12:31:08.526Z,1.30
2022-08-02T12:33:50.521Z,1.52
2022-08-02T12:36:28.009Z,1.25
2022-08-02T12:39:00.336Z,1.08
2022-08-02T12:41:31.670Z,1.30
2022-08-02T12:44:02.354Z,1.20
2022-08-02T12:46:31.526Z,1.40
2022-08-02T12:49:18.717Z,1.38
2022-08-02T12:51:56.763Z,1.40
2022-08-02T12:54:32.633Z,1.63
2022-08-02T12:57:14.031Z,1.67
2022-08-02T12:59:45.265Z,1.17
2022-08-02T13:02:13.413Z,1.10
2022-08-02T13:04:49.008Z,1.35
2022-08-02T13:07:18.815Z,1.40
2022-08-02T13:09:47.688Z,1.42
2022-08-02T13:12:14.810Z,1.25
2022-08-02T13:14:42.687Z,1.10
2022-08-02T13:17:11.419Z,1.30
2022-08-02T13:19:42.335Z,1.00
2022-08-02T13:22:11.853Z,1.10
2022-08-02T13:24:56.244Z,1.10
2022-08-02T13:27:25.482Z,1.05
2022-08-02T13:29:56.428Z,1.38
2022-08-02T13:32:24.432Z,1.27
2022-08-02T13:34:51.769Z,1.25
2022-08-02T13:37:21.136Z,1.75
2022-08-02T13:40:18.593Z,1.17
2022-08-02T13:42:37.895Z,1.40
2022-08-02T13:45:12.581Z,1.30
2022-08-02T13:48:04.371Z,1.40
2022-08-02T13:50:33.147Z,1.75
2022-08-02T13:53:03.191Z,1.08
2022-08-02T13:55:32.892Z,1.10
2022-08-02T13:58:00.330Z,1.20
2022-08-02T14:00:35.589Z,1.02
2022-08-02T14:03:08.095Z,1.00
2022-08-02T14:05:47.346Z,1.13
2022-08-02T14:08:20.045Z,1.00
2022-08-02T14:10:48.269Z,1.70
2022-08-02T14:13:15.939Z,1.20
2022-08-02T14:15:43.496Z,1.20
2022-08-02T14:18:11.030Z,1.17
2022-08-02T14:20:40.652Z,1.30
2022-08-02T14:23:10.007Z,0.90
2022-08-02T14:25:37.438Z,1.70
2022-08-02T14:28:09.396Z,1.13
2022-08-02T14:30:36.641Z,1.50
2022-08-02T14:33:07.279Z,1.10
2022-08-02T14:35:37.238Z,1.40
2022-08-02T14:38:05.002Z,1.42
2022-08-02T14:40:33.421Z,1.17
2022-08-02T14:43:04.700Z,1.20
2022-08-02T14:45:41.211Z,1.42
2022-08-02T14:48:12.160Z,1.10
2022-08-02T14:50:42.206Z,1.30
2022-08-02T14:53:16.256Z,1.27
2022-08-02T14:55:46.306Z,1.20
2022-08-02T14:58:13.783Z,1.10
2022-08-02T15:00:43.765Z,1.30
2022-08-02T15:03:12.136Z,1.20
2022-08-02T15:05:40.316Z,1.10
2022-08-02T15:08:08.086Z,1.50
2022-08-02T15:10:35.476Z,1.30
2022-08-02T15:13:05.880Z,1.10
2022-08-02T15:15:42.212Z,1.33
2022-08-02T15:18:16.556Z,1.02
2022-08-02T15:20:54.535Z,1.50
2022-08-02T15:23:34.798Z,1.23
2022-08-02T15:26:06.744Z,0.98
2022-08-02T15:28:35.027Z,1.30
2022-08-02T15:31:02.139Z,1.50
2022-08-02T15:33:29.775Z,1.05
2022-08-02T15:35:59.731Z,1.48
2022-08-02T15:38:26.923Z,1.30
2022-08-02T15:41:02.119Z,1.08
2022-08-02T15:43:29.513Z,1.30
2022-08-02T15:45:56.664Z,1.15
2022-08-02T15:48:23.910Z,1.17
2022-08-02T15:50:51.379Z,1.10
2022-08-02T15:53:18.660Z,1.13
2022-08-02T15:56:05.164Z,1.30
2022-08-02T15:58:44.462Z,1.10
2022-08-02T16:01:14.187Z,1.30
2022-08-02T16:03:41.534Z,1.20
2022-08-02T16:06:08.596Z,1.20
2022-08-02T16:08:35.726Z,0.95
2022-08-02T16:11:03.541Z,1.30
2022-08-02T16:13:53.520Z,1.00
2022-08-02T16:16:36.609Z,1.00
2022-08-02T16:19:45.907Z,1.17
2022-08-02T16:21:55.068Z,1.15
2022-08-02T16:24:23.153Z,1.25
2022-08-02T16:26:50.797Z,1.17
2022-08-02T16:29:20.054Z,1.25
2022-08-02T16:31:48.293Z,1.42
2022-08-02T16:34:16.901Z,1.10
2022-08-02T16:36:47.024Z,1.38
2022-08-02T16:39:15.088Z,0.88
2022-08-02T16:41:50.146Z,1.10
2022-08-02T16:44:27.694Z,0.98
2022-08-02T16:47:06.943Z,1.02
2022-08-02T16:50:05.451Z,1.27
2022-08-02T16:52:22.155Z,0.93
2022-08-02T16:54:50.206Z,1.30
2022-08-02T16:57:22.316Z,1.13
2022-08-02T16:59:57.692Z,1.15
2022-08-02T17:05:14.847Z,0.93
2022-08-02T17:08:08.501Z,1.38
2022-08-02T17:10:36.977Z,1.20
2022-08-02T17:16:16.704Z,1.33
2022-08-02T17:18:49.229Z,1.10
2022-08-02T17:21:18.202Z,1.08
2022-08-02T17:24:05.828Z,1.10
2022-08-02T17:26:33.188Z,1.00
2022-08-02T17:29:15.053Z,1.20
2022-08-02T17:32:04.686Z,1.20
2022-08-02T17:34:35.850Z,0.98
2022-08-02T17:37:05.553Z,1.15
2022-08-02T17:39:44.455Z,1.02
2022-08-02T17:42:24.870Z,1.20
2022-08-02T17:44:54.233Z,1.25
2022-08-02T17:47:22.831Z,1.20
2022-08-02T17:50:00.010Z,1.20
2022-08-02T17:52:50.105Z,1.17
2022-08-02T17:55:19.563Z,1.10
2022-08-02T17:57:57.714Z,1.15
2022-08-02T18:00:34.974Z,1.40
2022-08-02T18:03:05.559Z,1.30
2022-08-02T18:05:41.691Z,1.35
2022-08-02T18:08:23.814Z,1.30
2022-08-02T18:10:55.983Z,1.05
2022-08-02T18:13:23.615Z,1.02
2022-08-02T18:15:57.319Z,1.08
2022-08-02T18:18:30.288Z,1.15
2022-08-02T18:20:58.792Z,1.40
2022-08-02T18:23:44.134Z,1.40
2022-08-02T18:26:17.429Z,1.30
2022-08-02T18:28:50.968Z,1.42
2022-08-02T18:31:22.275Z,1.35
2022-08-02T18:33:58.597Z,1.33
2022-08-02T18:36:31.374Z,1.48
2022-08-02T18:39:07.774Z,1.42
2022-08-02T18:41:36.590Z,1.50
2022-08-02T18:44:05.518Z,1.65
2022-08-02T18:46:33.466Z,1.67
2022-08-02T18:49:06.696Z,1.73
2022-08-02T18:51:46.723Z,1.80
2022-08-02T18:54:15.079Z,1.90
2022-08-02T18:56:47.184Z,1.73
2022-08-02T18:59:15.447Z,1.95
2022-08-02T19:01:50.435Z,2.10
2022-08-02T19:04:26.777Z,1.63
2022-08-02T19:06:56.376Z,1.85
2022-08-02T19:09:23.973Z,1.55
2022-08-02T19:11:55.599Z,1.73
2022-08-02T19:14:27.894Z,1.92
2022-08-02T19:17:53.006Z,1.70
2022-08-02T19:19:51.277Z,1.60
2022-08-02T19:22:20.313Z,1.80
2022-08-02T19:25:01.221Z,1.77
2022-08-02T19:27:32.556Z,1.55
2022-08-02T19:30:07.809Z,1.60
2022-08-02T19:32:59.015Z,1.50
2022-08-02T19:35:34.485Z,2.10
2022-08-02T19:38:15.242Z,2.60
2022-08-02T19:40:43.034Z,2.72
2022-08-02T19:44:24.048Z,2.25
2022-08-02T19:45:58.692Z,2.45
2022-08-02T19:48:27.041Z,2.08
2022-08-02T19:51:00.714Z,1.83
2022-08-02T19:53:47.636Z,1.80
2022-08-02T19:56:24.959Z,1.77
2022-08-02T19:58:57.672Z,1.65
2022-08-02T20:01:33.228Z,1.70
2022-08-02T20:04:07.585Z,1.70
2022-08-02T20:06:45.945Z,1.60
2022-08-02T20:09:16.873Z,2.05
2022-08-02T20:11:54.552Z,1.40
2022-08-02T20:14:26.700Z,1.60
2022-08-02T20:16:57.313Z,1.55
2022-08-02T20:19:28.967Z,1.75
2022-08-02T20:21:59.944Z,1.70
2022-08-02T20:24:28.538Z,1.65
2022-08-02T20:26:59.447Z,1.70
2022-08-02T20:29:43.416Z,2.00
2022-08-02T20:32:21.814Z,2.42
2022-08-02T20:34:49.902Z,2.10
2022-08-02T20:37:59.088Z,2.30
2022-08-02T20:40:07.784Z,2.10
2022-08-02T20:42:35.183Z,2.00
2022-08-02T20:45:06.059Z,2.22
2022-08-02T20:47:39.098Z,2.13
2022-08-02T20:50:31.475Z,2.00
2022-08-02T20:53:01.959Z,2.10
2022-08-02T20:55:30.799Z,2.00
2022-08-02T20:58:04.596Z,2.08
2022-08-02T21:00:35.300Z,2.17
2022-08-02T21:03:04.485Z,2.05
2022-08-02T21:05:53.923Z,2.13
2022-08-02T21:08:21.605Z,2.20
2022-08-02T21:13:47.320Z,1.92
2022-08-02T21:16:23.673Z,1.88
2022-08-02T21:18:59.694Z,2.13
2022-08-02T21:21:27.937Z,2.05
2022-08-02T21:23:55.310Z,2.20
2022-08-02T21:26:28.599Z,2.00
2022-08-02T21:29:03.937Z,1.80
2022-08-02T21:31:36.029Z,2.03
2022-08-02T21:34:21.605Z,1.77
2022-08-02T21:36:49.268Z,1.70
2022-08-02T21:39:20.410Z,2.25
2022-08-02T21:41:48.374Z,2.22
2022-08-02T21:44:16.752Z,1.70
2022-08-02T21:46:50.270Z,1.30
2022-08-02T21:49:41.235Z,2.13
2022-08-02T21:52:11.261Z,1.55
2022-08-02T21:54:39.675Z,1.48
2022-08-02T21:57:11.221Z,1.40
2022-08-02T21:59:47.430Z,1.30
2022-08-02T22:02:16.715Z,1.58
2022-08-02T22:04:48.090Z,1.42
2022-08-02T22:07:23.641Z,1.48
2022-08-02T22:09:52.914Z,1.60
2022-08-02T22:12:21.922Z,1.48
2022-08-02T22:14:56.514Z,1.35
2022-08-02T22:17:52.575Z,1.40
2022-08-02T22:20:20.417Z,1.65
2022-08-02T22:22:52.603Z,1.70
2022-08-02T22:25:38.911Z,1.88
2022-08-02T22:28:37.775Z,1.73
2022-08-02T22:30:58.232Z,2.10
2022-08-02T22:34:01.026Z,1.63
2022-08-02T22:36:43.142Z,2.03
2022-08-02T22:39:19.378Z,1.90
2022-08-02T22:42:05.859Z,1.73
2022-08-02T22:44:35.359Z,1.90
2022-08-02T22:47:14.073Z,1.90
2022-08-02T22:49:52.890Z,1.70
2022-08-02T22:52:23.790Z,1.85
2022-08-02T22:54:51.172Z,2.00
2022-08-02T22:57:30.104Z,1.73
2022-08-02T22:58:36.282Z,1.10
2022-08-02T22:58:50.531Z,1.25
2022-08-02T22:59:01.946Z,2.10
2022-08-02T23:00:00.032Z,1.83
2022-08-02T23:02:28.226Z,2.03
2022-08-02T23:04:57.127Z,2.08
2022-08-02T23:07:24.292Z,1.70
2022-08-02T23:09:51.746Z,2.03
2022-08-02T23:12:21.861Z,1.75
2022-08-02T23:14:52.413Z,1.90
2022-08-02T23:17:38.513Z,2.03
2022-08-02T23:20:07.144Z,1.63
2022-08-02T23:22:34.349Z,2.00
2022-08-02T23:25:02.451Z,2.05
2022-08-02T23:27:31.070Z,1.88
2022-08-02T23:30:01.230Z,2.17
2022-08-02T23:32:28.541Z,2.03
2022-08-02T23:34:57.545Z,1.83
2022-08-02T23:37:25.347Z,1.80
2022-08-02T23:39:52.512Z,2.60
2022-08-02T23:42:19.937Z,1.92
2022-08-02T23:44:46.936Z,1.90
2022-08-02T23:47:17.298Z,1.75
2022-08-02T23:49:44.602Z,1.90
2022-08-02T23:52:14.162Z,2.08
2022-08-02T23:54:44.119Z,2.22
2022-08-02T23:57:21.096Z,2.15
2022-08-02T23:59:52.061Z,2.00
